Ride Results

Central Ranges Endurance Ride (04-06-2022)
Ride distance: 100.0 km Elevator

Outcomes - Central Ranges Endurance Ride (04-06-2022)
Division No. of Entries Retired / DNE Completed Withdrawn Ineligible V/O Percentage Completed
HW 2 - 2 - - - 100.00%
MW 15 8 7 - - - 100.00%
LW 12 3 9 - - - 100.00%
JN 3 2 1 - - - 100.00%
Totals 32 13 19 - - - 100.00%
Results - Central Ranges Endurance Ride (04-06-2022)
No. Rider Horse Place Time Leg Speeds Total
Km/Hr
H/R bpm
Heavyweight
112 Kate Johnson Saphire 1 (BC) 6:37:21 14.2, 16.2, 14.8 15.10 34, 37, 40, 42 (Avg:39)
116 Ian Dreghorn Ausden Nile Prins 2 7:49:07 13.3, 13.5, 10.6 12.79 31, 49, 42, 45 (Avg:45)
Middleweight
68 Shelley Jones Shellal Blue 1 (BC) 5:40:14 15.9, 18.8, 19.2 17.63 32, 46, 53, 49 (Avg:49)
109 Mette Sutton Tuldar Tully 2 5:55:49 15.2, 18.9, 16.6 16.86 42, 48, 51, 50 (Avg:49)
62 Sarah Parker Wybalena Lodge Aflirt 3 6:56:17 13.0, 15.3, 15.7 14.41 34, 44, 44, 46 (Avg:44)
103 Margaret Boland Rosebrae Amber 4 7:02:16 13.6, 15.6, 12.8 14.21 36, 42, 50, 48 (Avg:46)
102 Gay Kerr Rosebrae Cameo 5 7:02:27 13.6, 15.6, 12.8 14.20 33, 39, 43, 44 (Avg:42)
115 April Newman Tarnette 6 7:47:48 13.0, 12.8, 12.2 12.83 34, 42, 42, 40 (Avg:41)
114 Clare Feary Equilo 7 7:47:54 13.0, 12.8, 12.2 12.82 42, 44, 42, 44 (Avg:43)
107 Isabella Circosta Ropa Park Bella Shakila Retired/DNE L2 4:43:54 15.2, 18.9 16.91 36, 49, 50 (Avg:49)
73 Thomas Hermann Wasabi Retired/DNE L2 4:47:09 15.4, 18.2 16.72 39, 44, 46 (Avg:45)
74 Renee Kirk JRK Venom Retired/DNE L2 5:38:50 13.4, 14.9 14.17 36, 44, 44 (Avg:44)
75 Susan Woodward JRK Phoenix Retired/DNE L2 5:38:58 13.5, 14.8 14.16 37, 44, 43 (Avg:43)
91 Cody Holloway Exquisite Tirade Retired/DNE L2 6:08:17 13.1, 12.9 13.03 38, 44, 44 (Avg:44)
110 Darryl King Pindari Park Karizma Retired/DNE L2 6:15:16 12.7, 12.8 12.79 34, 44, 41 (Avg:42)
89 Amanda Myers Stoodleigh Sun Rise Retired/DNE L2 6:18:07 12.6, 12.7 12.69 33, 42, 44 (Avg:43)
79 Greta Johnson JRK Cobra Retired/DNE L2 6:36:05 12.6, 11.6 12.12 32, 42, 46 (Avg:44)
Lightweight
106 Tiana Baldock Jamal Desert Mist 1 5:37:18 14.4, 20.6, 21.6 17.79 32, 40, 45, 46 (Avg:43)
72 Avril Cummins Khalua Bey 2 5:40:16 15.8, 18.9, 19.1 17.63 36, 38, 44, 43 (Avg:41)
66 Robin Gossip Raymar Amira 3 (BC) 5:49:08 15.4, 19.3, 17.1 17.19 36, 42, 44, 39 (Avg:41)
113 Jaimie Dekeyzer Marley 4 6:37:25 14.1, 16.2, 14.9 15.10 32, 40, 44, 48 (Avg:44)
111 Kali Sloane Blake's Heaven Carousel 5 6:37:45 14.5, 16.3, 14.0 15.08 29, 46, 42, 44 (Avg:44)
108 Faith Robinson Espirit Serena 6 6:55:45 12.8, 19.3, 11.4 14.43 42, 42, 44, 46 (Avg:44)
105 Belinda Hollingworth Kintamani Kimbra 7 7:02:39 13.4, 15.8, 12.8 14.20 49, 42, 52, 54 (Avg:49)
100 Sara Worner Tequila 8 7:44:19 12.6, 13.9, 11.6 12.92 32, 40, 46, 40 (Avg:42)
70 Indigo Noonan Mahazin Wonderstruck 9 7:56:08 12.9, 12.5, 11.9 12.60 29, 38, 39, 43 (Avg:40)
71 Linda Logan Willow Valley Dartanyan Retired/DNE L2 5:24:15 12.8, 17.3 14.80 32, 44, 40 (Avg:42)
76 Kate Pilley Aloha Zulm Retired/DNE L2 5:27:51 13.6, 15.8 14.64 27, 40, 42 (Avg:41)
78 Elizabeth Moir Box Hill Jackpot Retired/DNE L2 5:28:01 13.6, 15.7 14.63 31, 36, 40 (Avg:38)
Junior
101 Isabella Worner Lucanna Park Mystic Fire 1 (BC) 7:44:31 12.6, 13.9, 11.6 12.92 30, 42, 46, 46 (Avg:44)
104 Kaitlyn Mercieca Henley Farm Burosh Retired/DNE L2 5:12:04 14.5, 16.3 15.38 39, 46, 44 (Avg:45)
90 Alissa Myers Grattai Station Traveller Retired/DNE L2 6:18:18 12.6, 12.7 12.69 51, 53, 43 (Avg:48)